Millersport, Ohio
Current Conditions -  °F | °C
As of 11:54 PM on Friday 28 Nov 2014 (Local Time) from KVTA Reporting Station
Clear Clear  
Wind Chill: 26°   Ceiling: Unl
Heat Index: 31°   Visibility: 10mi
Dew Point: 18°   Wind: 5mph
Humidity: 59%   Direction: 170°S
Pressure: 30.13"   Gusts: NA
Location:  39.9°N, 82.53°W
Report Text: KVTA 290454Z AUTO 17004KT 10SM CLR M01/M08 A3013 RMK AO2 SLP213 T10061078 410061056
Loading
Personal Weather Stations






























Interactive Weather Map New forecast layout! Learn more

10-Day Weather Forecast

Advertisements
Track Severe Weather on mobile